Time,TemperatureF,DewpointF,PressureIn,WindDirection,WindDirectionDegrees,WindSpeedMPH,WindSpeedGustMPH,Humidity,HourlyPrecipIn,Conditions,Clouds,dailyrainin,SoftwareType,DateUTC
2013-08-29 00:02:00,77.4,73.0,29.94,WSW,243,0.0,3.0,86,0.00,,,0.00,weatherlink.com 1.10,2013-08-29 04:02:00,
2013-08-29 00:16:00,77.1,73.0,29.94,West,262,2.0,3.0,86,0.00,,,0.00,weatherlink.com 1.10,2013-08-29 04:16:00,
2013-08-29 00:31:00,76.8,72.0,29.94,West,279,1.0,3.0,86,0.00,,,0.00,weatherlink.com 1.10,2013-08-29 04:31:00,
2013-08-29 00:46:00,76.4,72.0,29.93,West,275,0.0,2.0,87,0.00,,,0.00,weatherlink.com 1.10,2013-08-29 04:46:00,
2013-08-29 01:01:00,76.0,72.0,29.93,SSE,162,0.0,2.0,88,0.00,,,0.00,weatherlink.com 1.10,2013-08-29 05:01:00,
2013-08-29 01:17:00,75.7,72.0,29.93,SW,229,2.0,3.0,88,0.00,,,0.00,weatherlink.com 1.10,2013-08-29 05:17:00,
2013-08-29 01:32:00,75.6,72.0,29.93,West,271,3.0,5.0,88,0.00,,,0.00,weatherlink.com 1.10,2013-08-29 05:32:00,
2013-08-29 01:47:00,75.4,72.0,29.93,West,275,2.0,3.0,88,0.00,,,0.00,weatherlink.com 1.10,2013-08-29 05:47:00,
2013-08-29 02:02:00,75.2,72.0,29.93,West,277,0.0,2.0,88,0.00,,,0.00,weatherlink.com 1.10,2013-08-29 06:02:00,
2013-08-29 02:17:00,74.9,72.0,29.92,WSW,258,0.0,2.0,89,0.00,,,0.00,weatherlink.com 1.10,2013-08-29 06:17:00,
2013-08-29 02:32:00,74.7,71.0,29.92,West,270,1.0,2.0,89,0.00,,,0.00,weatherlink.com 1.10,2013-08-29 06:32:00,
2013-08-29 02:47:00,74.4,71.0,29.92,WNW,286,0.0,1.0,90,0.00,,,0.00,weatherlink.com 1.10,2013-08-29 06:47:00,
2013-08-29 03:02:00,74.2,71.0,29.93,WNW,282,0.0,2.0,90,0.00,,,0.00,weatherlink.com 1.10,2013-08-29 07:02:00,
2013-08-29 03:17:00,73.9,71.0,29.92,West,272,1.0,3.0,91,0.00,,,0.00,weatherlink.com 1.10,2013-08-29 07:17:00,
2013-08-29 03:32:00,73.6,71.0,29.92,SW,220,0.0,1.0,91,0.00,,,0.00,weatherlink.com 1.10,2013-08-29 07:32:00,
2013-08-29 03:47:00,73.4,71.0,29.92,West,277,0.0,2.0,92,0.00,,,0.00,weatherlink.com 1.10,2013-08-29 07:47:00,
2013-08-29 04:02:00,73.3,71.0,29.92,West,281,1.0,2.0,92,0.00,,,0.00,weatherlink.com 1.10,2013-08-29 08:02:00,
2013-08-29 04:17:00,73.3,71.0,29.92,West,275,0.0,3.0,92,0.00,,,0.00,weatherlink.com 1.10,2013-08-29 08:17:00,
2013-08-29 04:32:00,73.2,71.0,29.92,SW,216,0.0,2.0,93,0.00,,,0.00,weatherlink.com 1.10,2013-08-29 08:32:00,
2013-08-29 04:47:00,73.1,71.0,29.91,West,272,0.0,3.0,93,0.00,,,0.00,weatherlink.com 1.10,2013-08-29 08:47:00,
2013-08-29 05:02:00,73.3,71.0,29.91,West,270,2.0,4.0,92,0.00,,,0.00,weatherlink.com 1.10,2013-08-29 09:02:00,
2013-08-29 05:17:00,73.4,71.0,29.91,West,272,1.0,3.0,92,0.00,,,0.00,weatherlink.com 1.10,2013-08-29 09:17:00,
2013-08-29 05:32:00,73.5,71.0,29.91,WNW,285,1.0,4.0,92,0.00,,,0.00,weatherlink.com 1.10,2013-08-29 09:32:00,
2013-08-29 05:47:00,73.5,71.0,29.91,WNW,284,3.0,3.0,92,0.00,,,0.00,weatherlink.com 1.10,2013-08-29 09:47:00,
2013-08-29 06:03:00,73.4,71.0,29.91,West,260,2.0,3.0,91,0.00,,,0.00,weatherlink.com 1.10,2013-08-29 10:03:00,
2013-08-29 06:17:00,73.3,71.0,29.91,West,270,3.0,4.0,91,0.00,,,0.00,weatherlink.com 1.10,2013-08-29 10:17:00,
2013-08-29 06:32:00,73.3,71.0,29.91,West,274,1.0,3.0,92,0.00,,,0.00,weatherlink.com 1.10,2013-08-29 10:32:00,
2013-08-29 06:47:00,73.2,71.0,29.92,West,275,0.0,2.0,92,0.00,,,0.00,weatherlink.com 1.10,2013-08-29 10:47:00,
2013-08-29 07:02:00,73.1,71.0,29.92,WNW,293,1.0,3.0,92,0.00,,,0.00,weatherlink.com 1.10,2013-08-29 11:02:00,
2013-08-29 07:17:00,73.2,71.0,29.92,WNW,288,1.0,3.0,92,0.00,,,0.00,weatherlink.com 1.10,2013-08-29 11:17:00,
2013-08-29 07:32:00,73.5,71.0,29.92,WNW,294,0.0,2.0,92,0.00,,,0.00,weatherlink.com 1.10,2013-08-29 11:32:00,
2013-08-29 07:47:00,73.8,71.0,29.93,West,272,2.0,3.0,91,0.00,,,0.00,weatherlink.com 1.10,2013-08-29 11:47:00,
2013-08-29 08:02:00,74.7,72.0,29.93,NNW,335,6.0,7.0,90,0.00,,,0.00,weatherlink.com 1.10,2013-08-29 12:02:00,
2013-08-29 08:17:00,75.7,72.0,29.93,WSW,250,2.0,6.0,88,0.00,,,0.00,weatherlink.com 1.10,2013-08-29 12:17:00,
2013-08-29 08:32:00,77.3,73.0,29.93,WNW,292,2.0,6.0,85,0.00,,,0.00,weatherlink.com 1.10,2013-08-29 12:32:00,
2013-08-29 08:47:00,78.5,73.0,29.93,WSW,239,1.0,6.0,82,0.00,,,0.00,weatherlink.com 1.10,2013-08-29 12:47:00,
2013-08-29 09:02:00,78.5,73.0,29.93,SW,229,0.0,6.0,82,0.00,,,0.00,weatherlink.com 1.10,2013-08-29 13:02:00,
2013-08-29 09:17:00,79.4,73.0,29.93,NW,308,5.0,8.0,81,0.00,,,0.00,weatherlink.com 1.10,2013-08-29 13:17:00,
2013-08-29 09:32:00,80.3,73.0,29.93,WSW,251,0.0,4.0,79,0.00,,,0.00,weatherlink.com 1.10,2013-08-29 13:32:00,
2013-08-29 09:47:00,81.0,74.0,29.93,NW,307,4.0,12.0,79,0.00,,,0.00,weatherlink.com 1.10,2013-08-29 13:47:00,
2013-08-29 10:02:00,81.7,73.0,29.92,WNW,296,3.0,8.0,76,0.00,,,0.00,weatherlink.com 1.10,2013-08-29 14:02:00,
2013-08-29 10:17:00,82.1,75.0,29.93,NW,324,3.0,6.0,78,0.00,,,0.00,weatherlink.com 1.10,2013-08-29 14:17:00,
2013-08-29 10:32:00,82.7,74.0,29.93,West,279,2.0,8.0,76,0.00,,,0.00,weatherlink.com 1.10,2013-08-29 14:32:00,
2013-08-29 10:47:00,84.1,75.0,29.93,NW,317,6.0,6.0,73,0.00,,,0.00,weatherlink.com 1.10,2013-08-29 14:47:00,
2013-08-29 11:03:00,85.1,75.0,29.92,West,260,1.0,9.0,72,0.00,,,0.00,weatherlink.com 1.10,2013-08-29 15:03:00,
2013-08-29 11:18:00,86.0,76.0,29.91,NW,313,4.0,7.0,71,0.00,,,0.00,weatherlink.com 1.10,2013-08-29 15:18:00,
2013-08-29 11:33:00,86.4,75.0,29.91,NW,304,6.0,9.0,69,0.00,,,0.00,weatherlink.com 1.10,2013-08-29 15:33:00,
2013-08-29 11:48:00,86.9,76.0,29.90,South,170,1.0,7.0,70,0.00,,,0.00,weatherlink.com 1.10,2013-08-29 15:48:00,
2013-08-29 12:03:00,87.5,77.0,29.90,WNW,288,2.0,11.0,70,0.00,,,0.00,weatherlink.com 1.10,2013-08-29 16:03:00,
2013-08-29 12:18:00,88.1,76.0,29.90,West,281,3.0,10.0,68,0.00,,,0.00,weatherlink.com 1.10,2013-08-29 16:18:00,
2013-08-29 12:33:00,88.5,77.0,29.89,WNW,301,3.0,7.0,68,0.00,,,0.00,weatherlink.com 1.10,2013-08-29 16:33:00,
2013-08-29 12:48:00,89.0,75.0,29.89,West,267,1.0,7.0,64,0.00,,,0.00,weatherlink.com 1.10,2013-08-29 16:48:00,
2013-08-29 13:03:00,89.3,76.0,29.89,West,278,1.0,7.0,64,0.00,,,0.00,weatherlink.com 1.10,2013-08-29 17:03:00,
2013-08-29 13:18:00,89.8,77.0,29.88,NNW,338,3.0,6.0,65,0.00,,,0.00,weatherlink.com 1.10,2013-08-29 17:18:00,
2013-08-29 13:33:00,90.5,76.0,29.89,WNW,284,4.0,8.0,63,0.00,,,0.00,weatherlink.com 1.10,2013-08-29 17:33:00,
2013-08-29 13:48:00,90.5,77.0,29.89,NW,326,1.0,8.0,64,0.00,,,0.00,weatherlink.com 1.10,2013-08-29 17:48:00,
2013-08-29 14:03:00,90.5,77.0,29.88,NW,321,2.0,7.0,65,0.00,,,0.00,weatherlink.com 1.10,2013-08-29 18:03:00,
2013-08-29 14:18:00,90.5,77.0,29.88,NW,325,2.0,5.0,64,0.00,,,0.00,weatherlink.com 1.10,2013-08-29 18:18:00,
2013-08-29 14:33:00,91.1,77.0,29.87,WSW,247,2.0,6.0,64,0.00,,,0.00,weatherlink.com 1.10,2013-08-29 18:33:00,
2013-08-29 14:48:00,90.8,76.0,29.87,NNE,14,5.0,8.0,62,0.00,,,0.00,weatherlink.com 1.10,2013-08-29 18:48:00,
2013-08-29 15:03:00,91.1,77.0,29.86,NNW,341,3.0,6.0,63,0.00,,,0.00,weatherlink.com 1.10,2013-08-29 19:03:00,
2013-08-29 15:18:00,90.9,77.0,29.86,NNE,33,3.0,5.0,63,0.00,,,0.00,weatherlink.com 1.10,2013-08-29 19:18:00,
2013-08-29 15:33:00,91.5,77.0,29.85,NW,305,2.0,4.0,62,0.00,,,0.00,weatherlink.com 1.10,2013-08-29 19:33:00,
2013-08-29 15:48:00,92.0,76.0,29.85,NW,305,5.0,6.0,60,0.00,,,0.00,weatherlink.com 1.10,2013-08-29 19:48:00,
2013-08-29 16:03:00,92.4,78.0,29.85,WSW,250,0.0,2.0,62,0.00,,,0.00,weatherlink.com 1.10,2013-08-29 20:03:00,
2013-08-29 16:18:00,92.9,76.0,29.85,North,7,5.0,6.0,58,0.00,,,0.00,weatherlink.com 1.10,2013-08-29 20:18:00,
2013-08-29 16:33:00,91.7,76.0,29.85,NW,305,3.0,3.0,61,0.00,,,0.00,weatherlink.com 1.10,2013-08-29 20:33:00,
2013-08-29 16:48:00,91.1,76.0,29.85,NNE,20,0.0,4.0,62,0.00,,,0.00,weatherlink.com 1.10,2013-08-29 20:48:00,
2013-08-29 17:03:00,92.0,76.0,29.85,NW,307,1.0,3.0,60,0.00,,,0.00,weatherlink.com 1.10,2013-08-29 21:03:00,
2013-08-29 17:18:00,91.9,77.0,29.85,NNW,337,0.0,6.0,61,0.00,,,0.00,weatherlink.com 1.10,2013-08-29 21:18:00,
2013-08-29 17:33:00,92.0,78.0,29.85,NE,53,4.0,5.0,63,0.00,,,0.00,weatherlink.com 1.10,2013-08-29 21:33:00,
2013-08-29 17:48:00,89.2,79.0,29.85,ENE,71,1.0,4.0,71,0.00,,,0.00,weatherlink.com 1.10,2013-08-29 21:48:00,
2013-08-29 18:03:00,88.1,78.0,29.86,SE,138,0.0,3.0,72,0.00,,,0.00,weatherlink.com 1.10,2013-08-29 22:03:00,
2013-08-29 18:18:00,87.0,78.0,29.87,NW,305,1.0,6.0,74,0.00,,,0.00,weatherlink.com 1.10,2013-08-29 22:18:00,
2013-08-29 18:33:00,84.4,78.0,29.86,WNW,296,2.0,3.0,80,0.00,,,0.00,weatherlink.com 1.10,2013-08-29 22:33:00,
2013-08-29 18:48:00,85.2,77.0,29.86,NNW,343,4.0,8.0,75,0.00,,,0.00,weatherlink.com 1.10,2013-08-29 22:48:00,
2013-08-29 19:03:00,84.4,75.0,29.86,NNE,28,5.0,8.0,74,0.00,,,0.00,weatherlink.com 1.10,2013-08-29 23:03:00,
2013-08-29 19:18:00,83.7,75.0,29.87,ENE,71,2.0,5.0,76,0.00,,,0.00,weatherlink.com 1.10,2013-08-29 23:18:00,
2013-08-29 19:34:00,83.0,76.0,29.88,NNW,346,1.0,4.0,78,0.00,,,0.00,weatherlink.com 1.10,2013-08-29 23:34:00,
2013-08-29 19:49:00,82.4,76.0,29.88,East,94,2.0,4.0,80,0.00,,,0.00,weatherlink.com 1.10,2013-08-29 23:49:00,
2013-08-29 20:04:00,82.0,76.0,29.89,North,11,2.0,2.0,81,0.00,,,0.00,weatherlink.com 1.10,2013-08-30 00:04:00,
2013-08-29 20:19:00,81.5,76.0,29.88,East,82,0.0,4.0,82,0.00,,,0.00,weatherlink.com 1.10,2013-08-30 00:19:00,
2013-08-29 20:34:00,81.2,75.0,29.88,NE,41,1.0,5.0,82,0.00,,,0.00,weatherlink.com 1.10,2013-08-30 00:34:00,
2013-08-29 20:49:00,80.9,75.0,29.90,NNW,333,0.0,4.0,83,0.00,,,0.00,weatherlink.com 1.10,2013-08-30 00:49:00,
2013-08-29 21:04:00,80.7,75.0,29.91,ENE,73,0.0,2.0,83,0.00,,,0.00,weatherlink.com 1.10,2013-08-30 01:04:00,
2013-08-29 21:19:00,80.2,75.0,29.92,North,1,0.0,2.0,84,0.00,,,0.00,weatherlink.com 1.10,2013-08-30 01:19:00,
2013-08-29 21:34:00,79.6,75.0,29.93,North,360,0.0,1.0,86,0.00,,,0.00,weatherlink.com 1.10,2013-08-30 01:34:00,
2013-08-29 21:49:00,79.3,75.0,29.93,NE,54,0.0,1.0,86,0.00,,,0.00,weatherlink.com 1.10,2013-08-30 01:49:00,
2013-08-29 22:04:00,79.1,75.0,29.92,NE,51,2.0,3.0,87,0.00,,,0.00,weatherlink.com 1.10,2013-08-30 02:04:00,
2013-08-29 22:19:00,79.0,75.0,29.92,NE,42,0.0,3.0,87,0.00,,,0.00,weatherlink.com 1.10,2013-08-30 02:19:00,
2013-08-29 22:34:00,78.9,75.0,29.93,NE,56,0.0,3.0,87,0.00,,,0.00,weatherlink.com 1.10,2013-08-30 02:34:00,
2013-08-29 22:49:00,78.7,75.0,29.93,NE,40,0.0,4.0,88,0.00,,,0.00,weatherlink.com 1.10,2013-08-30 02:49:00,
2013-08-29 23:04:00,78.3,75.0,29.93,NE,35,1.0,3.0,89,0.00,,,0.00,weatherlink.com 1.10,2013-08-30 03:04:00,
2013-08-29 23:19:00,78.4,75.0,29.93,NE,53,4.0,7.0,89,0.00,,,0.00,weatherlink.com 1.10,2013-08-30 03:19:00,
2013-08-29 23:34:00,78.7,75.0,29.93,ENE,78,6.0,6.0,87,0.00,,,0.00,weatherlink.com 1.10,2013-08-30 03:34:00,
2013-08-29 23:49:00,78.6,75.0,29.93,ENE,78,4.0,7.0,88,0.00,,,0.00,weatherlink.com 1.10,2013-08-30 03:49:00,